TimeMDT,TemperatureF,Dew PointF,Humidity,Sea Level PressureIn,VisibilityMPH,Wind Direction,Wind SpeedMPH,Gust SpeedMPH,PrecipitationIn,Events,Conditions,WindDirDegrees,DateUTC
12:00 AM,40,36,78,,,SSW,5.8,,,,,210,2013-06-13 06:00:00
12:00 AM,40.5,35.6,83,-9999,-9999.0,SSW,5.8,-,N/A,,Unknown,210,2013-06-13 06:00:00
1:00 AM,45.0,37.8,76,-9999,-9999.0,SSW,8.1,-,N/A,,Unknown,200,2013-06-13 07:00:00
2:00 AM,46.8,38.1,72,-9999,-9999.0,SSW,8.1,-,N/A,,Unknown,200,2013-06-13 08:00:00
3:00 AM,47.7,37.6,68,-9999,-9999.0,SSW,8.1,-,N/A,,Unknown,210,2013-06-13 09:00:00
4:00 AM,48.4,38.1,68,-9999,-9999.0,South,6.9,-,N/A,,Unknown,180,2013-06-13 10:00:00
5:00 AM,47.8,37.0,66,-9999,-9999.0,East,4.6,-,N/A,,Unknown,90,2013-06-13 11:00:00
6:00 AM,45,39,72,,,SW,2.3,,,,,220,2013-06-13 12:00:00
6:00 AM,44.6,39.0,81,-9999,-9999.0,SW,2.3,-,N/A,,Unknown,220,2013-06-13 12:00:00
7:00 AM,45.7,41.0,84,-9999,-9999.0,North,2.3,-,N/A,,Unknown,10,2013-06-13 13:00:00
8:00 AM,46.9,41.2,80,-9999,-9999.0,West,2.3,-,N/A,,Unknown,260,2013-06-13 14:00:00
9:00 AM,52.2,39.4,62,-9999,-9999.0,ENE,1.2,-,N/A,,Unknown,70,2013-06-13 15:00:00
10:00 AM,52.7,39.4,61,-9999,-9999.0,ENE,1.2,-,N/A,,Unknown,60,2013-06-13 16:00:00
11:00 AM,53.8,42.1,65,-9999,-9999.0,South,5.8,-,N/A,,Unknown,190,2013-06-13 17:00:00
12:00 PM,58,37,33,,,SSW,6.9,,,,,210,2013-06-13 18:00:00
12:00 PM,58.1,36.9,45,-9999,-9999.0,SSW,6.9,-,N/A,,Unknown,210,2013-06-13 18:00:00
1:00 PM,59.0,36.9,44,-9999,-9999.0,SW,5.8,-,N/A,,Unknown,230,2013-06-13 19:00:00
2:00 PM,59.0,35.1,41,-9999,-9999.0,SW,9.2,-,N/A,,Unknown,230,2013-06-13 20:00:00
3:00 PM,58.6,36.5,44,-9999,-9999.0,SW,12.7,-,N/A,,Unknown,220,2013-06-13 21:00:00
4:00 PM,59.4,34.2,39,-9999,-9999.0,South,8.1,-,N/A,,Unknown,190,2013-06-13 22:00:00
5:00 PM,63.9,35.4,35,-9999,-9999.0,SW,10.4,17.3,N/A,,Unknown,220,2013-06-13 23:00:00
6:00 PM,60,36,29,,,SW,16.1,,,,,220,2013-06-14 00:00:00
6:00 PM,60.4,36.3,41,-9999,-9999.0,SW,16.1,24.2,N/A,,Unknown,220,2013-06-14 00:00:00
7:00 PM,57.0,36.9,47,-9999,-9999.0,SW,12.7,18.4,N/A,,Unknown,230,2013-06-14 01:00:00
8:00 PM,47.5,41.5,80,-9999,-9999.0,SW,17.3,26.5,0.01,,Unknown,230,2013-06-14 02:00:00
9:00 PM,48.0,41.7,79,-9999,-9999.0,SW,10.4,-,0.01,,Unknown,220,2013-06-14 03:00:00
10:00 PM,46.9,38.8,73,-9999,-9999.0,SW,9.2,-,N/A,,Unknown,230,2013-06-14 04:00:00
11:00 PM,48.2,35.1,60,-9999,-9999.0,SW,10.4,-,N/A,,Unknown,230,2013-06-14 05:00:00